createdAt,value
2022-10-02T00:00:38.208Z,1.80
2022-10-02T00:03:32.355Z,2.50
2022-10-02T00:06:14.972Z,2.40
2022-10-02T00:08:45.132Z,2.00
2022-10-02T00:11:31.734Z,2.10
2022-10-02T00:14:04.397Z,2.90
2022-10-02T00:17:02.034Z,1.90
2022-10-02T00:19:30.042Z,2.70
2022-10-02T00:22:26.203Z,2.20
2022-10-02T00:25:34.500Z,2.70
2022-10-02T00:28:20.927Z,2.20
2022-10-02T00:31:15.592Z,2.10
2022-10-02T00:34:21.783Z,2.30
2022-10-02T00:37:37.247Z,3.10
2022-10-02T00:40:42.618Z,1.90
2022-10-02T00:43:45.545Z,2.40
2022-10-02T00:46:22.004Z,2.20
2022-10-02T00:49:37.471Z,2.50
2022-10-02T00:52:40.240Z,2.40
2022-10-02T00:55:47.344Z,2.40
2022-10-02T00:58:48.975Z,2.90
2022-10-02T01:03:56.512Z,2.10
2022-10-02T01:06:28.290Z,2.20
2022-10-02T01:08:56.447Z,3.20
2022-10-02T01:11:27.092Z,2.70
2022-10-02T01:13:55.216Z,3.20
2022-10-02T01:16:23.724Z,2.50
2022-10-02T01:18:52.155Z,2.40
2022-10-02T01:21:36.285Z,2.30
2022-10-02T01:24:22.467Z,2.00
2022-10-02T01:26:50.744Z,2.10
2022-10-02T01:29:18.828Z,2.10
2022-10-02T01:31:46.798Z,2.60
2022-10-02T01:34:15.555Z,2.20
2022-10-02T01:36:43.961Z,2.10
2022-10-02T01:39:12.289Z,2.40
2022-10-02T01:41:44.967Z,2.70
2022-10-02T01:44:14.888Z,2.20
2022-10-02T01:47:09.989Z,2.30
2022-10-02T01:50:10.955Z,2.70
2022-10-02T01:53:17.669Z,2.10
2022-10-02T01:56:08.108Z,2.30
2022-10-02T01:59:21.052Z,2.80
2022-10-02T02:02:11.320Z,2.10
2022-10-02T02:05:00.762Z,2.70
2022-10-02T02:07:56.378Z,2.20
2022-10-02T02:10:39.789Z,2.80
2022-10-02T02:13:58.963Z,2.50
2022-10-02T02:16:41.762Z,3.10
2022-10-02T02:19:37.484Z,2.70
2022-10-02T02:22:17.575Z,2.00
2022-10-02T02:24:56.962Z,2.40
2022-10-02T02:27:31.700Z,2.10
2022-10-02T02:30:07.205Z,2.30
2022-10-02T02:32:41.495Z,2.20
2022-10-02T02:35:31.750Z,2.30
2022-10-02T02:38:12.447Z,3.30
2022-10-02T02:40:45.564Z,2.70
2022-10-02T02:43:24.111Z,3.50
2022-10-02T02:46:05.945Z,2.20
2022-10-02T02:48:46.341Z,2.10
2022-10-02T02:51:22.740Z,2.20
2022-10-02T02:54:12.890Z,2.70
2022-10-02T02:56:45.764Z,2.30
2022-10-02T03:01:43.145Z,2.20
2022-10-02T03:04:15.551Z,2.70
2022-10-02T03:06:49.384Z,1.90
2022-10-02T03:09:21.747Z,2.50
2022-10-02T03:12:05.085Z,1.80
2022-10-02T03:15:10.322Z,2.20
2022-10-02T03:18:05.575Z,2.70
2022-10-02T03:21:00.541Z,2.10
2022-10-02T03:23:44.255Z,2.20
2022-10-02T03:26:58.977Z,2.40
2022-10-02T03:29:49.492Z,2.20
2022-10-02T03:32:19.013Z,2.50
2022-10-02T03:34:49.888Z,2.60
2022-10-02T03:37:18.491Z,4.00
2022-10-02T03:39:46.490Z,2.20
2022-10-02T03:42:16.511Z,2.00
2022-10-02T03:44:44.723Z,2.10
2022-10-02T03:47:12.709Z,1.80
2022-10-02T03:49:40.927Z,2.00
2022-10-02T03:52:19.774Z,3.00
2022-10-02T03:54:53.724Z,2.40
2022-10-02T03:57:25.724Z,2.20
2022-10-02T04:00:09.047Z,1.70
2022-10-02T04:02:51.455Z,3.00
2022-10-02T04:05:43.170Z,2.00
2022-10-02T04:08:16.684Z,3.20
2022-10-02T04:11:12.018Z,2.60
2022-10-02T04:13:47.308Z,2.10
2022-10-02T04:16:33.442Z,2.10
2022-10-02T04:19:19.083Z,2.30
2022-10-02T04:22:08.191Z,2.50
2022-10-02T04:25:07.012Z,3.00
2022-10-02T04:27:42.346Z,2.20
2022-10-02T04:30:18.348Z,3.30
2022-10-02T04:32:47.599Z,2.50
2022-10-02T04:35:32.336Z,2.10
2022-10-02T04:38:29.100Z,2.20
2022-10-02T04:41:40.951Z,2.50
2022-10-02T04:47:12.299Z,2.40
2022-10-02T04:50:19.188Z,2.30
2022-10-02T04:53:12.390Z,2.00
2022-10-02T04:56:17.444Z,2.00
2022-10-02T04:59:07.852Z,1.70
2022-10-02T05:02:03.718Z,2.10
2022-10-02T05:05:00.576Z,2.00
2022-10-02T05:07:47.977Z,2.40
2022-10-02T05:10:57.927Z,2.10
2022-10-02T05:14:02.466Z,2.00
2022-10-02T05:16:54.501Z,2.50
2022-10-02T05:20:00.691Z,2.10
2022-10-02T05:23:06.835Z,2.30
2022-10-02T05:26:03.589Z,2.20
2022-10-02T05:29:07.593Z,2.10
2022-10-02T05:32:20.851Z,1.90
2022-10-02T05:35:13.674Z,2.80
2022-10-02T05:38:09.687Z,2.20
2022-10-02T05:41:01.432Z,1.90
2022-10-02T05:43:54.824Z,2.00
2022-10-02T05:46:31.878Z,1.70
2022-10-02T05:49:44.835Z,2.40
2022-10-02T05:52:40.594Z,2.60
2022-10-02T05:55:29.192Z,2.10
2022-10-02T05:58:43.801Z,2.10
2022-10-02T06:01:35.568Z,2.20
2022-10-02T06:04:27.790Z,2.40
2022-10-02T06:07:07.214Z,2.20
2022-10-02T06:09:45.450Z,2.70
2022-10-02T06:12:26.817Z,2.00
2022-10-02T06:15:04.187Z,2.20
2022-10-02T06:17:42.960Z,2.00
2022-10-02T06:20:25.902Z,2.50
2022-10-02T06:23:20.507Z,1.80
2022-10-02T06:26:03.404Z,2.20
2022-10-02T06:28:44.317Z,2.30
2022-10-02T06:31:47.565Z,2.20
2022-10-02T06:34:15.740Z,2.00
2022-10-02T06:36:55.775Z,2.00
2022-10-02T06:39:35.468Z,2.40
2022-10-02T06:42:35.768Z,2.30
2022-10-02T06:45:41.166Z,2.00
2022-10-02T06:48:43.316Z,2.20
2022-10-02T06:51:38.208Z,2.70
2022-10-02T06:54:19.210Z,1.90
2022-10-02T06:57:20.885Z,2.10
2022-10-02T07:03:31.087Z,2.40
2022-10-02T07:06:12.235Z,2.00
2022-10-02T07:09:29.511Z,2.20
2022-10-02T07:11:57.380Z,2.10
2022-10-02T07:14:37.968Z,2.20
2022-10-02T07:17:30.572Z,1.90
2022-10-02T07:20:29.715Z,2.40
2022-10-02T07:23:18.961Z,2.00
2022-10-02T07:26:15.533Z,1.90
2022-10-02T07:29:03.595Z,2.20
2022-10-02T07:32:03.925Z,2.60
2022-10-02T07:34:56.215Z,2.40
2022-10-02T07:37:40.466Z,2.10
2022-10-02T07:40:47.425Z,2.60
2022-10-02T07:43:30.589Z,2.20
2022-10-02T07:46:31.059Z,2.50
2022-10-02T07:49:21.386Z,2.90
2022-10-02T07:52:20.834Z,2.80
2022-10-02T07:55:16.098Z,2.50
2022-10-02T07:58:35.701Z,2.30
2022-10-02T08:01:14.330Z,4.30
2022-10-02T08:03:56.848Z,4.20
2022-10-02T08:06:25.974Z,3.20
2022-10-02T08:09:24.827Z,2.20
2022-10-02T08:12:22.497Z,2.60
2022-10-02T08:14:55.892Z,2.60
2022-10-02T08:17:43.229Z,2.50
2022-10-02T08:20:31.501Z,2.90
2022-10-02T08:23:34.839Z,2.00
2022-10-02T08:26:35.645Z,1.90
2022-10-02T08:29:21.091Z,2.00
2022-10-02T08:31:53.405Z,2.10
2022-10-02T08:34:25.155Z,2.00
2022-10-02T08:37:20.269Z,2.30
2022-10-02T08:40:14.011Z,2.70
2022-10-02T08:43:27.988Z,1.90
2022-10-02T08:46:36.483Z,1.90
2022-10-02T08:49:29.218Z,2.20
2022-10-02T08:52:24.719Z,2.00
2022-10-02T08:55:44.511Z,1.90
2022-10-02T08:58:13.095Z,2.10
2022-10-02T09:01:14.072Z,2.00
2022-10-02T09:04:15.195Z,2.10
2022-10-02T09:07:31.392Z,2.80
2022-10-02T09:10:51.816Z,3.10
2022-10-02T09:14:07.296Z,2.80
2022-10-02T09:17:17.158Z,2.70
2022-10-02T09:20:29.026Z,2.40
2022-10-02T09:23:48.638Z,2.30
2022-10-02T09:26:35.116Z,2.90
2022-10-02T09:29:45.413Z,2.10
2022-10-02T09:32:43.405Z,2.10
2022-10-02T09:35:32.511Z,2.10
2022-10-02T09:38:42.367Z,3.00
2022-10-02T09:41:44.349Z,3.00
2022-10-02T09:45:01.430Z,1.90
2022-10-02T09:48:20.522Z,2.90
2022-10-02T09:51:27.825Z,1.90
2022-10-02T09:53:58.473Z,1.80
2022-10-02T09:57:01.847Z,1.80
2022-10-02T10:00:12.024Z,2.00
2022-10-02T10:03:13.873Z,2.40
2022-10-02T10:06:03.155Z,2.30
2022-10-02T10:09:35.276Z,2.10
2022-10-02T10:12:27.979Z,1.70
2022-10-02T10:15:45.807Z,2.10
2022-10-02T10:19:06.732Z,1.60
2022-10-02T10:22:12.540Z,2.00
2022-10-02T10:24:49.360Z,2.20
2022-10-02T10:27:43.256Z,2.00
2022-10-02T10:30:22.156Z,1.80
2022-10-02T10:33:30.225Z,1.90
2022-10-02T10:36:55.775Z,2.40
2022-10-02T10:39:43.404Z,2.40
2022-10-02T10:43:07.121Z,2.00
2022-10-02T10:46:02.506Z,2.10
2022-10-02T10:49:31.904Z,1.70
2022-10-02T10:52:31.406Z,2.00
2022-10-02T10:55:35.607Z,2.30
2022-10-02T10:58:54.166Z,2.50
2022-10-02T11:01:56.946Z,1.60
2022-10-02T11:05:01.216Z,1.50
2022-10-02T11:07:40.494Z,1.80
2022-10-02T11:10:21.039Z,1.80
2022-10-02T11:13:03.111Z,1.60
2022-10-02T11:15:56.520Z,1.90
2022-10-02T11:18:39.222Z,1.80
2022-10-02T11:21:44.688Z,1.60
2022-10-02T11:25:19.497Z,2.20
2022-10-02T11:28:26.836Z,1.60
2022-10-02T11:31:17.535Z,1.50
2022-10-02T11:34:32.654Z,1.60
2022-10-02T11:37:36.897Z,1.60
2022-10-02T11:41:04.547Z,2.00
2022-10-02T11:44:04.864Z,2.20
2022-10-02T11:47:18.831Z,1.90
2022-10-02T11:50:39.843Z,1.70
2022-10-02T11:53:35.269Z,1.20
2022-10-02T11:56:29.315Z,2.00
2022-10-02T11:59:31.841Z,1.70
2022-10-02T12:02:45.347Z,2.00
2022-10-02T12:05:53.491Z,1.80
2022-10-02T12:08:36.580Z,1.90
2022-10-02T12:11:34.671Z,1.60
2022-10-02T12:14:48.931Z,1.50
2022-10-02T12:17:53.254Z,2.40
2022-10-02T12:21:01.329Z,2.30
2022-10-02T12:24:20.545Z,1.90
2022-10-02T12:27:08.141Z,2.20
2022-10-02T12:30:08.481Z,2.10
2022-10-02T12:33:18.204Z,1.60
2022-10-02T12:36:11.989Z,1.50
2022-10-02T12:39:01.176Z,2.00
2022-10-02T12:42:11.682Z,1.80
2022-10-02T12:45:14.811Z,1.70
2022-10-02T12:48:02.840Z,1.40
2022-10-02T12:50:52.630Z,1.60
2022-10-02T12:53:40.690Z,1.50
2022-10-02T12:57:04.191Z,1.90
2022-10-02T12:59:58.420Z,1.90
2022-10-02T13:03:02.058Z,1.60
2022-10-02T13:06:13.331Z,1.50
2022-10-02T13:09:03.155Z,1.70
2022-10-02T13:11:52.503Z,1.60
2022-10-02T13:14:38.205Z,2.50
2022-10-02T13:17:22.121Z,1.80
2022-10-02T13:20:30.383Z,2.00
2022-10-02T13:23:32.114Z,2.00
2022-10-02T13:26:21.246Z,1.50
2022-10-02T13:29:20.928Z,1.60
2022-10-02T13:32:19.379Z,1.40
2022-10-02T13:35:00.160Z,1.70
2022-10-02T13:38:01.610Z,1.60
2022-10-02T13:43:28.736Z,1.50
2022-10-02T13:46:37.439Z,1.50
2022-10-02T13:49:45.069Z,1.70
2022-10-02T13:52:33.150Z,1.80
2022-10-02T13:55:18.604Z,1.80
2022-10-02T13:58:34.028Z,1.40
2022-10-02T14:01:29.580Z,1.30
2022-10-02T14:04:40.389Z,1.90
2022-10-02T14:07:29.575Z,1.70
2022-10-02T14:10:11.408Z,1.40
2022-10-02T14:13:11.264Z,1.80
2022-10-02T14:16:02.538Z,1.40
2022-10-02T14:19:09.376Z,1.60
2022-10-02T14:21:47.432Z,1.60
2022-10-02T14:25:01.609Z,1.80
2022-10-02T14:27:51.359Z,1.60
2022-10-02T14:30:39.872Z,1.70
2022-10-02T14:33:47.103Z,1.80
2022-10-02T14:36:31.776Z,1.50
2022-10-02T14:39:11.383Z,1.40
2022-10-02T14:42:01.479Z,1.60
2022-10-02T14:44:57.367Z,1.70
2022-10-02T14:47:43.102Z,1.80
2022-10-02T14:50:39.552Z,1.30
2022-10-02T14:53:54.948Z,1.90
2022-10-02T14:56:51.106Z,1.90
2022-10-02T15:00:06.069Z,1.40
2022-10-02T15:03:33.540Z,1.20
2022-10-02T15:06:16.209Z,1.80
2022-10-02T15:08:54.986Z,1.90
2022-10-02T15:11:40.140Z,1.90
2022-10-02T15:14:48.026Z,1.60
2022-10-02T15:17:53.831Z,1.90
2022-10-02T15:20:31.202Z,1.80
2022-10-02T15:23:03.889Z,1.70
2022-10-02T15:25:59.643Z,2.40
2022-10-02T15:28:47.899Z,1.60
2022-10-02T15:31:37.535Z,1.50
2022-10-02T15:34:30.458Z,1.50
2022-10-02T15:37:21.933Z,1.40
2022-10-02T15:40:33.610Z,1.40
2022-10-02T15:43:41.755Z,1.90
2022-10-02T15:46:40.363Z,1.60
2022-10-02T15:49:18.809Z,1.90
2022-10-02T15:52:23.873Z,1.50
2022-10-02T15:55:25.227Z,1.70
2022-10-02T15:58:47.016Z,1.90
2022-10-02T16:01:54.793Z,2.00
2022-10-02T16:04:56.056Z,1.50
2022-10-02T16:07:54.692Z,2.00
2022-10-02T16:10:29.929Z,1.60
2022-10-02T16:13:54.340Z,2.10
2022-10-02T16:16:35.124Z,1.70
2022-10-02T16:19:30.416Z,2.10
2022-10-02T16:22:32.704Z,2.30
2022-10-02T16:25:18.471Z,2.10
2022-10-02T16:28:41.443Z,1.70
2022-10-02T16:31:53.567Z,2.60
2022-10-02T16:35:18.388Z,2.80
2022-10-02T16:38:18.447Z,2.60
2022-10-02T16:40:58.731Z,2.20
2022-10-02T16:43:46.464Z,1.80
2022-10-02T16:46:28.193Z,1.80
2022-10-02T16:49:22.221Z,2.70
2022-10-02T16:52:20.581Z,2.10
2022-10-02T16:55:26.928Z,1.70
2022-10-02T16:58:06.819Z,1.70
2022-10-02T17:00:51.626Z,2.20
2022-10-02T17:04:28.732Z,2.20
2022-10-02T17:07:31.275Z,2.10
2022-10-02T17:10:30.832Z,2.20
2022-10-02T17:13:12.188Z,2.40
2022-10-02T17:16:17.585Z,2.60
2022-10-02T17:19:01.924Z,2.10
2022-10-02T17:21:46.546Z,2.60
2022-10-02T17:24:14.319Z,2.10
2022-10-02T17:26:53.730Z,2.40
2022-10-02T17:29:59.501Z,2.10
2022-10-02T17:33:14.922Z,2.20
2022-10-02T17:35:54.719Z,2.00
2022-10-02T17:38:25.135Z,2.20
2022-10-02T17:41:11.186Z,2.30
2022-10-02T17:43:53.120Z,2.00
2022-10-02T17:46:51.951Z,3.20
2022-10-02T17:49:53.632Z,2.10
2022-10-02T17:52:52.273Z,2.00
2022-10-02T17:56:20.627Z,2.30
2022-10-02T17:59:30.600Z,3.40
2022-10-02T18:02:36.899Z,5.10
2022-10-02T18:05:50.854Z,3.20
2022-10-02T18:08:52.356Z,2.70
2022-10-02T18:11:51.621Z,2.40
2022-10-02T18:14:28.420Z,2.80
2022-10-02T18:17:15.575Z,2.30
2022-10-02T18:20:23.495Z,2.80
2022-10-02T18:23:23.337Z,2.60
2022-10-02T18:26:06.756Z,3.10
2022-10-02T18:28:56.634Z,3.10
2022-10-02T18:32:11.898Z,3.70
2022-10-02T18:35:48.059Z,3.60
2022-10-02T18:38:42.813Z,4.00
2022-10-02T18:41:32.684Z,4.10
2022-10-02T18:44:27.357Z,4.20
2022-10-02T18:47:52.551Z,4.10
2022-10-02T18:50:46.359Z,4.60
2022-10-02T18:54:00.759Z,4.30
2022-10-02T18:56:59.707Z,4.90
2022-10-02T18:59:43.699Z,4.90
2022-10-02T19:02:37.547Z,6.40
2022-10-02T19:05:35.031Z,5.60
2022-10-02T19:08:02.816Z,5.60
2022-10-02T19:10:30.605Z,6.60
2022-10-02T19:13:22.316Z,7.40
2022-10-02T19:15:53.955Z,6.60
2022-10-02T19:18:25.342Z,6.40
2022-10-02T19:23:32.523Z,7.40
2022-10-02T19:26:17.919Z,9.00
2022-10-02T19:29:08.272Z,10.80
2022-10-02T19:31:39.651Z,8.00
2022-10-02T19:34:27.663Z,8.30
2022-10-02T19:37:04.277Z,8.20
2022-10-02T19:39:37.162Z,8.30
2022-10-02T19:42:45.587Z,6.70
2022-10-02T19:45:25.712Z,6.40
2022-10-02T19:48:18.790Z,6.40
2022-10-02T19:50:51.740Z,6.50
2022-10-02T19:53:23.885Z,6.00
2022-10-02T19:56:00.824Z,5.80
2022-10-02T19:58:45.868Z,6.50
2022-10-02T20:01:31.226Z,8.40
2022-10-02T20:04:03.560Z,9.10
2022-10-02T20:06:37.787Z,7.80
2022-10-02T20:09:18.291Z,5.80
2022-10-02T20:11:53.338Z,7.50
2022-10-02T20:14:30.871Z,8.30
2022-10-02T20:17:10.961Z,8.70
2022-10-02T20:19:51.909Z,10.20
2022-10-02T20:22:41.948Z,10.70
2022-10-02T20:25:28.499Z,7.20
2022-10-02T20:28:45.988Z,10.90
2022-10-02T20:31:22.413Z,10.90
2022-10-02T20:33:57.567Z,10.90
2022-10-02T20:36:38.024Z,10.60
2022-10-02T20:39:14.199Z,11.10
2022-10-02T20:41:55.720Z,12.60
2022-10-02T20:44:27.420Z,21.00
2022-10-02T20:47:29.007Z,16.30
2022-10-02T20:50:58.295Z,12.40
2022-10-02T20:54:06.717Z,17.40
2022-10-02T20:57:01.806Z,16.70
2022-10-02T21:00:00.380Z,11.50
2022-10-02T21:02:34.793Z,14.40
2022-10-02T21:05:43.518Z,14.50
2022-10-02T21:08:39.569Z,15.20
2022-10-02T21:11:29.120Z,17.60
2022-10-02T21:14:27.604Z,16.00
2022-10-02T21:17:29.724Z,15.80
2022-10-02T21:20:51.238Z,14.10
2022-10-02T21:23:32.946Z,18.20
2022-10-02T21:26:19.195Z,16.20
2022-10-02T21:29:16.436Z,16.20
2022-10-02T21:31:58.458Z,12.60
2022-10-02T21:35:13.947Z,12.60
2022-10-02T21:38:02.405Z,12.30
2022-10-02T21:40:57.772Z,11.50
2022-10-02T21:43:50.579Z,11.60
2022-10-02T21:47:18.747Z,11.30
2022-10-02T21:50:11.901Z,12.40
2022-10-02T21:53:04.078Z,12.30
2022-10-02T21:56:12.799Z,11.60
2022-10-02T21:59:06.451Z,10.40
2022-10-02T22:01:42.769Z,9.50
2022-10-02T22:05:19.994Z,9.00
2022-10-02T22:08:10.692Z,8.70
2022-10-02T22:10:38.654Z,8.50
2022-10-02T22:13:23.921Z,8.60
2022-10-02T22:16:11.061Z,8.10
2022-10-02T22:18:53.210Z,8.20
2022-10-02T22:22:01.808Z,8.80
2022-10-02T22:24:55.608Z,9.20
2022-10-02T22:28:10.007Z,8.80
2022-10-02T22:30:56.054Z,8.90
2022-10-02T22:33:58.946Z,8.10
2022-10-02T22:36:42.141Z,9.00
2022-10-02T22:39:33.847Z,8.50
2022-10-02T22:42:10.881Z,7.10
2022-10-02T22:44:52.380Z,7.70
2022-10-02T22:47:50.672Z,7.10
2022-10-02T22:50:34.371Z,7.40
2022-10-02T22:53:40.721Z,7.70
2022-10-02T22:56:30.366Z,7.30
2022-10-02T22:59:38.961Z,6.40
2022-10-02T23:02:43.983Z,6.00
2022-10-02T23:05:31.096Z,5.80
2022-10-02T23:08:27.917Z,5.90
2022-10-02T23:11:14.577Z,5.20
2022-10-02T23:14:15.058Z,5.50
2022-10-02T23:16:51.954Z,5.00
2022-10-02T23:19:38.776Z,5.60
2022-10-02T23:22:22.428Z,5.50
2022-10-02T23:25:22.204Z,5.80
2022-10-02T23:28:04.087Z,5.90
2022-10-02T23:30:40.970Z,5.00
2022-10-02T23:33:29.222Z,5.00
2022-10-02T23:36:19.308Z,6.20
2022-10-02T23:38:58.174Z,5.50
2022-10-02T23:41:48.311Z,5.20
2022-10-02T23:44:42.919Z,4.80
2022-10-02T23:47:34.947Z,5.20
2022-10-02T23:50:23.026Z,4.30
2022-10-02T23:53:05.734Z,4.20
2022-10-02T23:55:59.533Z,5.00
2022-10-02T23:58:45.532Z,5.10
